Archival Weather

Komakuk Beach

Komakuk Beach, Canada (CWKM)

Report from: Saturday, April 1, 2023 5:00 AM UTC
Current time: Tuesday, July 16, 2024 9:41 AM UTC

Current weather – Weather history – Daily summaries
Weather forecast

Present weatherSM
Temperature-17.0°C (1.4°F)
Wind chill-30.4°C (-22.8°F)
Dew point-19.0°C (-2.2°F)
Winds 23 kts (11.8 m/s, 26.5 mph) East (100°)
Visibility0 ft. (0 m)
Clouds Sky clear
Altimeter29.82 in.Hg (1010 mB)
Relative humidity84 %
Density altitude-3,923 ft. (-1,196 m)
Remarks Fully automated report
No clouds detected
Flight conditions Low Instrument Meteorological Conditions
Raw dataCWKM 010500Z AUTO 10023KT ////SM NCD M17/M19 A2982
An error has occurred. This application may no longer respond until reloaded. Reload 🗙